createdAt,value
2023-12-23T00:01:21.038Z,98079.25
2023-12-23T00:03:49.238Z,98093.13
2023-12-23T00:06:17.397Z,98087.31
2023-12-23T00:08:45.604Z,98106.44
2023-12-23T00:11:13.749Z,98107.97
2023-12-23T00:13:42.160Z,98101.25
2023-12-23T00:16:11.603Z,98096.16
2023-12-23T00:18:39.864Z,98104.00
2023-12-23T00:21:09.444Z,98085.50
2023-12-23T00:23:37.625Z,98062.00
2023-12-23T00:26:05.907Z,98064.41
2023-12-23T00:28:34.141Z,98078.50
2023-12-23T00:31:02.226Z,98084.72
2023-12-23T00:33:31.643Z,98068.16
2023-12-23T00:35:59.699Z,98064.53
2023-12-23T00:38:27.810Z,98059.97
2023-12-23T00:40:55.964Z,98036.63
2023-12-23T00:43:24.004Z,98031.44
2023-12-23T00:45:52.051Z,98016.06
2023-12-23T00:48:20.271Z,98038.59
2023-12-23T00:50:49.721Z,98050.66
2023-12-23T00:53:18.912Z,98054.28
2023-12-23T01:08:33.305Z,98085.97
2023-12-23T01:11:01.921Z,98097.16
2023-12-23T01:13:29.973Z,98123.50
2023-12-23T01:16:56.588Z,60107.28
2023-12-23T01:20:23.390Z,60107.28
2023-12-23T01:23:51.462Z,60107.28
2023-12-23T01:27:18.675Z,60107.28
2023-12-23T01:30:45.425Z,60107.28
2023-12-23T01:34:12.118Z,60107.28
2023-12-23T01:37:38.792Z,60107.28
2023-12-23T01:41:07.573Z,60107.28
2023-12-23T01:44:34.188Z,60107.28
2023-12-23T01:48:03.371Z,60107.28
2023-12-23T01:51:30.472Z,60107.28
2023-12-23T01:54:58.713Z,60107.28
2023-12-23T01:58:26.790Z,60107.28
2023-12-23T02:01:54.151Z,60107.28
2023-12-23T02:05:21.114Z,60107.28
2023-12-23T02:08:47.841Z,60107.28
2023-12-23T02:12:21.982Z,60107.28
2023-12-23T02:15:53.745Z,60107.28
2023-12-23T02:19:20.840Z,60107.28
2023-12-23T02:22:49.046Z,60107.28
2023-12-23T02:26:19.264Z,60107.28
2023-12-23T02:29:47.855Z,60107.28
2023-12-23T02:33:16.075Z,60107.28
2023-12-23T02:36:42.727Z,60107.28
2023-12-23T02:40:11.142Z,60107.28
2023-12-23T02:43:37.758Z,60107.28
2023-12-23T02:47:04.900Z,60107.28
2023-12-23T02:50:31.456Z,60107.28
2023-12-23T02:53:58.061Z,60107.28
2023-12-23T02:57:26.066Z,60107.28
2023-12-23T03:00:53.192Z,60107.28
2023-12-23T03:04:19.801Z,60107.28
2023-12-23T03:07:49.183Z,60107.28
2023-12-23T03:11:16.320Z,60107.28
2023-12-23T03:14:44.320Z,60107.28
2023-12-23T03:18:10.926Z,60107.28
2023-12-23T03:21:43.436Z,60107.28
2023-12-23T03:25:10.307Z,60107.28
2023-12-23T03:28:37.012Z,60107.28
2023-12-23T03:32:05.225Z,60107.28
2023-12-23T03:35:31.804Z,60107.28
2023-12-23T03:38:58.345Z,60107.28
2023-12-23T03:42:25.064Z,60107.28
2023-12-23T03:45:51.584Z,60107.28
2023-12-23T03:49:19.808Z,60107.28
2023-12-23T03:52:46.438Z,60107.28
2023-12-23T03:56:13.339Z,60107.28
2023-12-23T03:59:40.828Z,60107.28
2023-12-23T04:03:07.621Z,60107.28
2023-12-23T04:06:35.625Z,60107.28
2023-12-23T04:10:02.284Z,60107.28
2023-12-23T04:13:30.328Z,60107.28
2023-12-23T04:15:58.433Z,98227.84
2023-12-23T04:18:26.589Z,98221.00
2023-12-23T04:20:56.090Z,98230.44
2023-12-23T04:23:24.183Z,98239.19
2023-12-23T04:25:52.310Z,98219.56
2023-12-23T04:28:26.023Z,98221.09
2023-12-23T04:30:56.521Z,98209.22
2023-12-23T04:33:24.760Z,98221.25
2023-12-23T04:35:53.010Z,98217.03
2023-12-23T04:38:22.538Z,98226.56
2023-12-23T04:40:50.701Z,98241.25
2023-12-23T04:43:18.836Z,98240.31
2023-12-23T04:45:46.915Z,98247.88
2023-12-23T04:48:15.087Z,98249.63
2023-12-23T04:50:43.128Z,98241.16
2023-12-23T04:53:11.822Z,98274.75
2023-12-23T04:55:41.404Z,98281.78
2023-12-23T04:58:10.096Z,98282.28
2023-12-23T05:00:38.150Z,98295.38
2023-12-23T05:03:06.901Z,98288.38
2023-12-23T05:05:34.997Z,98294.28
2023-12-23T05:08:03.596Z,98295.84
2023-12-23T05:10:31.678Z,98291.38
2023-12-23T05:13:01.125Z,98308.63
2023-12-23T05:15:29.161Z,98310.56
2023-12-23T05:17:57.321Z,98318.25
2023-12-23T05:20:25.640Z,98328.72
2023-12-23T05:22:54.137Z,98333.88
2023-12-23T05:25:22.598Z,98346.84
2023-12-23T05:27:51.148Z,98339.84
2023-12-23T05:30:20.652Z,98383.03
2023-12-23T05:32:49.023Z,98388.03
2023-12-23T05:35:17.212Z,98390.47
2023-12-23T05:37:45.282Z,98396.41
2023-12-23T05:40:14.153Z,98403.41
2023-12-23T05:42:42.292Z,98392.88
2023-12-23T05:45:11.314Z,98410.09
2023-12-23T05:47:40.857Z,98425.28
2023-12-23T05:50:11.058Z,98415.44
2023-12-23T05:52:39.799Z,98436.94
2023-12-23T05:55:09.185Z,98444.59
2023-12-23T05:57:37.254Z,98448.88
2023-12-23T06:00:06.465Z,98450.47
2023-12-23T06:02:34.524Z,98446.84
2023-12-23T06:05:05.380Z,98428.50
2023-12-23T06:07:35.579Z,98458.50
2023-12-23T06:10:04.358Z,98474.19
2023-12-23T06:12:32.541Z,98486.38
2023-12-23T06:15:00.578Z,98462.38
2023-12-23T06:17:29.115Z,98474.56
2023-12-23T06:19:57.284Z,98474.81
2023-12-23T06:22:26.807Z,98493.03
2023-12-23T06:24:54.964Z,98477.69
2023-12-23T06:27:23.089Z,98456.22
2023-12-23T06:29:51.244Z,98478.91
2023-12-23T06:32:19.291Z,98470.16
2023-12-23T06:34:47.398Z,98447.66
2023-12-23T06:37:15.508Z,98459.19
2023-12-23T06:40:02.297Z,98479.16
2023-12-23T06:42:30.361Z,98485.75
2023-12-23T06:44:58.430Z,98498.28
2023-12-23T06:47:26.598Z,98521.53
2023-12-23T06:49:54.780Z,98512.75
2023-12-23T06:52:22.898Z,98507.50
2023-12-23T06:54:52.334Z,98517.84
2023-12-23T06:57:20.512Z,98523.72
2023-12-23T06:59:48.566Z,98508.91
2023-12-23T07:02:16.884Z,98520.13
2023-12-23T07:04:45.196Z,98518.44
2023-12-23T07:07:13.273Z,98518.34
2023-12-23T07:09:41.331Z,98513.75
2023-12-23T07:12:10.812Z,98508.44
2023-12-23T07:14:39.198Z,98523.91
2023-12-23T07:17:07.247Z,98524.63
2023-12-23T07:19:38.147Z,98550.50
2023-12-23T07:22:06.523Z,98562.44
2023-12-23T07:24:35.079Z,98577.59
2023-12-23T07:27:05.740Z,98579.97
2023-12-23T07:29:35.163Z,98595.47
2023-12-23T07:32:03.274Z,98603.25
2023-12-23T07:34:31.455Z,98609.25
2023-12-23T07:36:59.557Z,98614.19
2023-12-23T07:39:27.661Z,98619.38
2023-12-23T07:41:55.712Z,98616.00
2023-12-23T07:44:23.876Z,98615.00
2023-12-23T07:46:53.577Z,98616.84
2023-12-23T07:49:21.703Z,98626.22
2023-12-23T07:51:49.833Z,98634.19
2023-12-23T07:54:18.006Z,98647.16
2023-12-23T07:56:46.072Z,98656.22
2023-12-23T07:59:14.149Z,98654.41
2023-12-23T08:01:46.486Z,98667.31
2023-12-23T08:04:16.318Z,98670.84
2023-12-23T08:06:44.573Z,98681.09
2023-12-23T08:09:12.641Z,98693.56
2023-12-23T08:11:40.975Z,98692.47
2023-12-23T08:14:09.087Z,98713.03
2023-12-23T08:16:37.237Z,98706.25
2023-12-23T08:19:05.930Z,98713.13
2023-12-23T08:21:38.304Z,98714.47
2023-12-23T08:24:07.138Z,98725.19
2023-12-23T08:26:35.444Z,98715.41
2023-12-23T08:29:03.587Z,98711.03
2023-12-23T08:31:31.912Z,98732.75
2023-12-23T08:34:00.684Z,98741.34
2023-12-23T08:36:28.898Z,98739.16
2023-12-23T08:38:58.626Z,98740.97
2023-12-23T08:41:28.722Z,98754.75
2023-12-23T08:43:56.927Z,98749.84
2023-12-23T08:46:27.189Z,98755.16
2023-12-23T08:48:55.416Z,98751.56
2023-12-23T08:51:23.683Z,98749.50
2023-12-23T08:53:51.747Z,98770.28
2023-12-23T08:56:21.278Z,98777.56
2023-12-23T08:58:49.470Z,98786.38
2023-12-23T09:01:18.526Z,98789.69
2023-12-23T09:03:46.748Z,98777.53
2023-12-23T09:06:15.353Z,98773.53
2023-12-23T09:08:43.532Z,98775.88
2023-12-23T09:11:11.829Z,98781.72
2023-12-23T09:13:41.296Z,98787.00
2023-12-23T09:16:09.397Z,98779.16
2023-12-23T09:18:37.541Z,98789.44
2023-12-23T09:21:05.674Z,98772.56
2023-12-23T09:23:34.186Z,98782.31
2023-12-23T09:26:02.299Z,98773.25
2023-12-23T09:28:30.511Z,98782.97
2023-12-23T09:31:00.008Z,98790.66
2023-12-23T09:33:28.192Z,98790.91
2023-12-23T09:35:56.379Z,98785.69
2023-12-23T09:38:24.482Z,98775.31
2023-12-23T09:40:52.762Z,98766.34
2023-12-23T09:43:23.231Z,98767.31
2023-12-23T09:45:54.075Z,98773.84
2023-12-23T09:48:23.823Z,98761.88
2023-12-23T09:50:52.005Z,98764.78
2023-12-23T09:53:23.459Z,98769.50
2023-12-23T09:55:52.822Z,98780.84
2023-12-23T09:58:21.427Z,98793.06
2023-12-23T10:00:49.767Z,98796.66
2023-12-23T10:03:18.010Z,98801.13
2023-12-23T10:05:47.657Z,98807.16
2023-12-23T10:08:15.210Z,98796.75
2023-12-23T10:10:44.328Z,98789.69
2023-12-23T10:13:12.736Z,98796.56
2023-12-23T10:15:42.454Z,98798.34
2023-12-23T10:18:14.002Z,98794.19
2023-12-23T10:20:44.399Z,98788.75
2023-12-23T10:23:14.064Z,98794.75
2023-12-23T10:25:42.175Z,98792.81
2023-12-23T10:28:10.810Z,98794.81
2023-12-23T10:30:41.511Z,98786.16
2023-12-23T10:33:10.821Z,98779.41
2023-12-23T10:35:45.689Z,98778.03
2023-12-23T10:38:17.945Z,98763.53
2023-12-23T10:40:49.210Z,98779.84
2023-12-23T10:43:19.510Z,98796.34
2023-12-23T10:45:50.889Z,98801.66
2023-12-23T10:48:19.903Z,98793.09
2023-12-23T10:50:50.047Z,98794.63
2023-12-23T10:53:20.051Z,98797.13
2023-12-23T10:55:49.438Z,98797.13
2023-12-23T10:58:20.887Z,98771.88
2023-12-23T11:00:49.429Z,98777.00
2023-12-23T11:03:18.270Z,98773.47
2023-12-23T11:05:48.322Z,98770.78
2023-12-23T11:08:22.883Z,98763.81
2023-12-23T11:10:52.675Z,98755.75
2023-12-23T11:13:22.171Z,98753.06
2023-12-23T11:15:50.285Z,98760.03
2023-12-23T11:18:18.419Z,98764.91
2023-12-23T11:20:51.630Z,98755.00
2023-12-23T11:23:37.359Z,98757.28
2023-12-23T11:26:06.460Z,98745.00
2023-12-23T11:28:37.808Z,98745.94
2023-12-23T11:31:06.462Z,98743.59
2023-12-23T11:33:38.006Z,98736.50
2023-12-23T11:36:08.057Z,98725.09
2023-12-23T11:38:51.895Z,98703.09
2023-12-23T11:41:21.691Z,98699.75
2023-12-23T11:43:51.679Z,98695.16
2023-12-23T11:46:21.575Z,98692.09
2023-12-23T11:48:50.469Z,98692.41
2023-12-23T11:51:19.085Z,98696.97
2023-12-23T11:53:48.839Z,98691.97
2023-12-23T11:56:18.047Z,98673.31
2023-12-23T11:58:46.222Z,98678.72
2023-12-23T12:01:14.432Z,98660.97
2023-12-23T12:03:42.609Z,98680.31
2023-12-23T12:06:11.019Z,98677.72
2023-12-23T12:08:39.437Z,98667.22
2023-12-23T12:11:09.064Z,98651.25
2023-12-23T12:13:37.642Z,98652.94
2023-12-23T12:16:06.462Z,98644.16
2023-12-23T12:18:34.691Z,98634.84
2023-12-23T12:21:03.250Z,98620.81
2023-12-23T12:23:31.488Z,98623.13
2023-12-23T12:25:59.751Z,98626.91
2023-12-23T12:28:31.526Z,98611.69
2023-12-23T12:31:10.088Z,98596.72
2023-12-23T12:33:42.201Z,98606.19
2023-12-23T12:36:15.007Z,98614.75
2023-12-23T12:38:44.438Z,98622.25
2023-12-23T12:41:13.716Z,98628.75
2023-12-23T12:43:44.548Z,98630.91
2023-12-23T12:46:16.300Z,98632.03
2023-12-23T12:48:46.511Z,98648.44
2023-12-23T12:51:15.972Z,98652.97
2023-12-23T12:53:44.128Z,98664.09
2023-12-23T12:56:13.788Z,98652.91
2023-12-23T12:58:46.298Z,98667.34
2023-12-23T13:01:15.777Z,98668.25
2023-12-23T13:03:44.154Z,98676.91
2023-12-23T13:06:12.484Z,98668.28
2023-12-23T13:08:40.620Z,98658.81
2023-12-23T13:11:09.035Z,98670.28
2023-12-23T13:13:37.087Z,98659.78
2023-12-23T13:16:08.190Z,98657.47
2023-12-23T13:18:45.880Z,98649.63
2023-12-23T13:21:22.877Z,98653.22
2023-12-23T13:23:51.036Z,98649.97
2023-12-23T13:26:19.187Z,98661.34
2023-12-23T13:28:50.737Z,98658.97
2023-12-23T13:31:21.896Z,98657.38
2023-12-23T13:33:50.102Z,98652.91
2023-12-23T13:36:18.197Z,98661.34
2023-12-23T13:38:47.123Z,98653.47
2023-12-23T13:41:20.026Z,98651.66
2023-12-23T13:43:48.359Z,98653.22
2023-12-23T13:46:16.594Z,98643.09
2023-12-23T13:48:46.250Z,98648.16
2023-12-23T13:51:14.998Z,98645.78
2023-12-23T13:53:44.435Z,98642.22
2023-12-23T13:56:12.574Z,98640.53
2023-12-23T13:58:40.838Z,98643.09
2023-12-23T14:01:08.904Z,98641.28
2023-12-23T14:03:37.200Z,98630.13
2023-12-23T14:06:07.477Z,98624.25
2023-12-23T14:08:35.607Z,98638.78
2023-12-23T14:11:04.013Z,98638.78
2023-12-23T14:13:32.131Z,98640.78
2023-12-23T14:16:00.269Z,98636.34
2023-12-23T14:18:28.435Z,98639.94
2023-12-23T14:20:56.585Z,98623.16
2023-12-23T14:23:26.018Z,98633.34
2023-12-23T14:25:54.383Z,98629.09
2023-12-23T14:28:22.504Z,98628.97
2023-12-23T14:30:50.652Z,98642.53
2023-12-23T14:33:18.859Z,98645.16
2023-12-23T14:35:47.028Z,98638.53
2023-12-23T14:38:15.108Z,98650.59
2023-12-23T14:40:44.554Z,98642.16
2023-12-23T14:43:12.653Z,98641.19
2023-12-23T14:45:41.037Z,98644.06
2023-12-23T14:48:09.872Z,98654.31
2023-12-23T14:50:38.318Z,98647.56
2023-12-23T14:53:07.148Z,98649.25
2023-12-23T14:55:38.587Z,98649.47
2023-12-23T14:58:08.824Z,98653.06
2023-12-23T15:00:37.025Z,98649.47
2023-12-23T15:03:05.544Z,98658.94
2023-12-23T15:05:33.812Z,98649.34
2023-12-23T15:08:02.110Z,98655.25
2023-12-23T15:10:30.178Z,98652.06
2023-12-23T15:12:58.346Z,98657.19
2023-12-23T15:15:28.388Z,98654.53
2023-12-23T15:17:56.727Z,98650.50
2023-12-23T15:20:24.831Z,98653.66
2023-12-23T15:22:56.688Z,98658.03
2023-12-23T15:25:24.774Z,98656.13
2023-12-23T15:27:52.805Z,98656.19
2023-12-23T15:30:21.010Z,98661.38
2023-12-23T15:32:50.917Z,98658.78
2023-12-23T15:35:19.612Z,98661.31
2023-12-23T15:37:50.484Z,98667.38
2023-12-23T15:40:18.567Z,98667.47
2023-12-23T15:42:46.610Z,98657.41
2023-12-23T15:45:14.891Z,98657.25
2023-12-23T15:47:43.154Z,98653.81
2023-12-23T15:50:12.823Z,98646.72
2023-12-23T15:52:40.929Z,98647.66
2023-12-23T15:55:09.692Z,98656.34
2023-12-23T15:57:37.982Z,98662.28
2023-12-23T16:00:07.598Z,98660.56
2023-12-23T16:02:35.737Z,98654.44
2023-12-23T16:05:04.581Z,98643.88
2023-12-23T16:07:34.014Z,98652.94
2023-12-23T16:10:02.211Z,98649.25
2023-12-23T16:12:30.336Z,98656.13
2023-12-23T16:14:58.396Z,98649.25
2023-12-23T16:17:26.618Z,98644.16
2023-12-23T16:19:56.594Z,98644.28
2023-12-23T16:22:24.706Z,98629.84
2023-12-23T16:24:54.896Z,98634.19
2023-12-23T16:27:23.084Z,98633.19
2023-12-23T16:29:51.094Z,98627.16
2023-12-23T16:32:20.536Z,98621.63
2023-12-23T16:34:48.984Z,98613.69
2023-12-23T16:37:17.040Z,98620.63
2023-12-23T16:39:45.149Z,98611.78
2023-12-23T16:42:14.556Z,98611.59
2023-12-23T16:44:42.749Z,98604.50
2023-12-23T16:47:11.320Z,98615.78
2023-12-23T16:49:41.694Z,98608.25
2023-12-23T16:52:10.777Z,98612.75
2023-12-23T16:54:38.956Z,98607.41
2023-12-23T16:57:07.219Z,98603.94
2023-12-23T16:59:36.652Z,98602.88
2023-12-23T17:02:05.082Z,98602.16
2023-12-23T17:04:33.189Z,98602.03
2023-12-23T17:07:01.964Z,98606.41
2023-12-23T17:09:30.014Z,98609.81
2023-12-23T17:11:58.142Z,98598.63
2023-12-23T17:14:26.401Z,98605.66
2023-12-23T17:16:55.965Z,98606.19
2023-12-23T17:19:24.799Z,98604.41
2023-12-23T17:21:52.912Z,98596.72
2023-12-23T17:24:20.957Z,98603.59
2023-12-23T17:26:49.031Z,98604.31
2023-12-23T17:29:17.611Z,98601.00
2023-12-23T17:31:48.069Z,98610.63
2023-12-23T17:34:17.608Z,98615.88
2023-12-23T17:36:45.767Z,98625.66
2023-12-23T17:39:13.878Z,98633.53
2023-12-23T17:41:41.949Z,98639.28
2023-12-23T17:44:10.127Z,98644.28
2023-12-23T17:46:38.281Z,98661.31
2023-12-23T17:49:06.382Z,98685.44
2023-12-23T17:51:36.044Z,98701.84
2023-12-23T17:54:04.065Z,98701.94
2023-12-23T17:56:32.264Z,98687.63
2023-12-23T17:59:00.371Z,98684.91
2023-12-23T18:01:28.462Z,98685.84
2023-12-23T18:03:56.547Z,98681.59
2023-12-23T18:06:24.675Z,98675.59
2023-12-23T18:08:54.271Z,98679.81
2023-12-23T18:11:22.312Z,98683.94
2023-12-23T18:13:50.948Z,98685.69
2023-12-23T18:16:19.077Z,98683.75
2023-12-23T18:18:47.310Z,98678.41
2023-12-23T18:21:15.446Z,98681.72
2023-12-23T18:23:43.582Z,98680.03
2023-12-23T18:26:13.203Z,98667.75
2023-12-23T18:28:41.682Z,98666.88
2023-12-23T18:31:09.777Z,98682.28
2023-12-23T18:33:37.947Z,98678.81
2023-12-23T18:36:06.733Z,98687.38
2023-12-23T18:38:34.799Z,98694.16
2023-12-23T18:41:02.850Z,98683.00
2023-12-23T18:43:32.821Z,98691.66
2023-12-23T18:46:00.870Z,98686.59
2023-12-23T18:48:28.983Z,98701.75
2023-12-23T18:50:58.771Z,98708.28
2023-12-23T18:53:27.025Z,98713.28
2023-12-23T18:55:55.268Z,98711.47
2023-12-23T18:58:23.395Z,98721.75
2023-12-23T19:00:53.985Z,98718.34
2023-12-23T19:03:22.778Z,98716.47
2023-12-23T19:05:51.086Z,98721.75
2023-12-23T19:08:19.383Z,98721.00
2023-12-23T19:10:47.901Z,98708.19
2023-12-23T19:13:15.936Z,98725.47
2023-12-23T19:15:46.885Z,98732.94
2023-12-23T19:18:16.412Z,98733.34
2023-12-23T19:20:44.866Z,98719.56
2023-12-23T19:23:13.012Z,98734.28
2023-12-23T19:25:41.376Z,98739.84
2023-12-23T19:28:09.491Z,98737.41
2023-12-23T19:30:37.685Z,98746.94
2023-12-23T19:33:07.461Z,98756.53
2023-12-23T19:35:37.097Z,98755.84
2023-12-23T19:38:06.326Z,98754.72
2023-12-23T19:40:34.473Z,98761.78
2023-12-23T19:43:02.680Z,98762.66
2023-12-23T19:45:30.865Z,98761.13
2023-12-23T19:47:59.020Z,98774.69
2023-12-23T19:50:27.850Z,98784.97
2023-12-23T19:52:57.517Z,98778.16
2023-12-23T19:55:25.853Z,98790.44
2023-12-23T19:57:54.063Z,98787.78
2023-12-23T20:00:22.502Z,98791.28
2023-12-23T20:02:52.060Z,98788.69
2023-12-23T20:05:20.555Z,98787.84
2023-12-23T20:07:50.178Z,98784.38
2023-12-23T20:10:20.257Z,98789.56
2023-12-23T20:12:48.518Z,98804.22
2023-12-23T20:15:16.633Z,98794.56
2023-12-23T20:17:44.821Z,98802.28
2023-12-23T20:20:14.019Z,98804.97
2023-12-23T20:22:42.763Z,98816.06
2023-12-23T20:25:11.188Z,98820.13
2023-12-23T20:27:40.958Z,98821.63
2023-12-23T20:30:10.388Z,98829.50
2023-12-23T20:32:41.758Z,98818.16
2023-12-23T20:35:10.458Z,98825.63
2023-12-23T20:37:40.876Z,98824.03
2023-12-23T20:40:10.313Z,98832.31
2023-12-23T20:42:40.671Z,98842.69
2023-12-23T20:45:12.594Z,98833.97
2023-12-23T20:47:41.040Z,98844.38
2023-12-23T20:50:09.928Z,98852.00
2023-12-23T20:52:39.445Z,98859.75
2023-12-23T20:55:09.113Z,98856.34
2023-12-23T20:57:37.293Z,98869.91
2023-12-23T21:00:10.071Z,98864.63
2023-12-23T21:02:38.178Z,98867.16
2023-12-23T21:05:06.701Z,98874.81
2023-12-23T21:07:34.768Z,98873.13
2023-12-23T21:10:02.802Z,98884.31
2023-12-23T21:12:30.930Z,98889.44
2023-12-23T21:14:59.329Z,98895.47
2023-12-23T21:17:29.013Z,98897.16
2023-12-23T21:19:57.300Z,98902.56
2023-12-23T21:22:25.356Z,98906.69
2023-12-23T21:24:54.432Z,98908.22
2023-12-23T21:27:22.673Z,98913.53
2023-12-23T21:29:50.790Z,98917.88
2023-12-23T21:32:19.182Z,98919.41
2023-12-23T21:34:48.780Z,98925.44
2023-12-23T21:37:17.200Z,98935.75
2023-12-23T21:39:45.377Z,98930.34
2023-12-23T21:42:13.780Z,98940.88
2023-12-23T21:44:41.981Z,98940.72
2023-12-23T21:47:10.118Z,98935.44
2023-12-23T21:49:38.319Z,98942.69
2023-12-23T21:52:08.163Z,98931.78
2023-12-23T21:54:36.343Z,98949.78
2023-12-23T21:57:04.913Z,98951.53
2023-12-23T21:59:33.024Z,98952.31
2023-12-23T22:02:01.223Z,98957.63
2023-12-23T22:04:30.296Z,98955.91
2023-12-23T22:06:59.971Z,98958.47
2023-12-23T22:09:31.295Z,98963.56
2023-12-23T22:12:00.041Z,98968.75
2023-12-23T22:14:28.407Z,98976.56
2023-12-23T22:16:56.830Z,98972.09
2023-12-23T22:19:25.119Z,98979.72
2023-12-23T22:21:53.303Z,98971.09
2023-12-23T22:24:21.597Z,98976.41
2023-12-23T22:26:51.502Z,98974.66
2023-12-23T22:29:19.653Z,98974.69
2023-12-23T22:31:47.846Z,98975.78
2023-12-23T22:34:16.200Z,98979.31
2023-12-23T22:36:44.456Z,98980.34
2023-12-23T22:39:13.062Z,98982.97
2023-12-23T22:41:41.301Z,98983.84
2023-12-23T22:44:10.869Z,98984.03
2023-12-23T22:46:40.373Z,98984.03
2023-12-23T22:49:08.731Z,98979.59
2023-12-23T22:51:36.852Z,98979.69
2023-12-23T22:54:07.508Z,98989.28
2023-12-23T22:56:39.902Z,98991.09
2023-12-23T22:59:08.367Z,98990.19
2023-12-23T23:01:37.806Z,98997.06
2023-12-23T23:04:05.937Z,98996.19
2023-12-23T23:06:34.009Z,99006.56
2023-12-23T23:09:02.108Z,99014.97
2023-12-23T23:11:30.521Z,99012.31
2023-12-23T23:13:58.636Z,99010.81
2023-12-23T23:16:26.750Z,99009.25
2023-12-23T23:18:56.262Z,99017.94
2023-12-23T23:21:25.591Z,99019.75
2023-12-23T23:23:54.090Z,99017.25
2023-12-23T23:26:22.216Z,99020.81
2023-12-23T23:28:50.364Z,99021.59
2023-12-23T23:31:18.478Z,99027.81
2023-12-23T23:33:46.637Z,99027.00
2023-12-23T23:36:18.063Z,99047.72
2023-12-23T23:38:46.551Z,99041.47
2023-12-23T23:41:14.946Z,99050.94
2023-12-23T23:43:43.147Z,99058.53
2023-12-23T23:46:16.551Z,99058.31
2023-12-23T23:48:45.229Z,99059.88
2023-12-23T23:51:19.643Z,99067.50
2023-12-23T23:53:48.068Z,99077.75
2023-12-23T23:56:20.209Z,99078.50
2023-12-23T23:58:49.436Z,99081.16
